createdAt,value
2017-01-17T00:00:49.494Z,23.13
2017-01-17T00:01:49.037Z,23.13
2017-01-17T00:02:48.973Z,23.09
2017-01-17T00:03:48.917Z,23.15
2017-01-17T00:04:48.848Z,23.15
2017-01-17T00:05:48.787Z,23.13
2017-01-17T00:06:48.729Z,23.13
2017-01-17T00:07:48.659Z,23.15
2017-01-17T00:08:48.600Z,23.17
2017-01-17T00:09:48.540Z,23.2
2017-01-17T00:10:48.476Z,23.17
2017-01-17T00:11:48.413Z,23.2
2017-01-17T00:12:48.379Z,23.2
2017-01-17T00:13:48.289Z,23.13
2017-01-17T00:14:48.228Z,23.23
2017-01-17T00:15:48.168Z,23.2
2017-01-17T00:16:48.107Z,23.13
2017-01-17T00:17:48.042Z,23.17
2017-01-17T00:18:47.980Z,23.2
2017-01-17T00:19:47.922Z,23.23
2017-01-17T00:20:47.862Z,23.2
2017-01-17T00:21:47.794Z,23.21
2017-01-17T00:22:47.733Z,23.13
2017-01-17T00:23:47.672Z,23.12
2017-01-17T00:24:47.606Z,23.21
2017-01-17T00:25:47.550Z,23.27
2017-01-17T00:26:47.482Z,23.15
2017-01-17T00:27:47.422Z,23.23
2017-01-17T00:28:47.360Z,23.18
2017-01-17T00:29:47.300Z,23.21
2017-01-17T00:30:47.235Z,23.23
2017-01-17T00:31:47.172Z,23.21
2017-01-17T00:32:47.113Z,23.23
2017-01-17T00:33:47.048Z,23.21
2017-01-17T00:34:46.987Z,23.25
2017-01-17T00:35:46.926Z,23.23
2017-01-17T00:36:46.862Z,23.2
2017-01-17T00:37:46.799Z,23.21
2017-01-17T00:38:46.737Z,23.21
2017-01-17T00:39:46.677Z,23.21
2017-01-17T00:40:46.615Z,23.21
2017-01-17T00:41:46.555Z,23.21
2017-01-17T00:42:46.491Z,23.25
2017-01-17T00:43:46.426Z,23.23
2017-01-17T00:44:46.366Z,23.17
2017-01-17T00:45:46.304Z,23.25
2017-01-17T00:46:46.244Z,23.21
2017-01-17T00:47:46.185Z,23.21
2017-01-17T00:48:46.125Z,23.24
2017-01-17T00:49:46.064Z,23.21
2017-01-17T00:50:45.993Z,23.17
2017-01-17T00:51:45.934Z,23.21
2017-01-17T00:52:45.872Z,23.23
2017-01-17T00:53:45.807Z,23.21
2017-01-17T00:54:45.744Z,23.15
2017-01-17T00:55:45.687Z,23.17
2017-01-17T00:56:45.622Z,23.23
2017-01-17T00:57:45.559Z,23.18
2017-01-17T00:58:45.497Z,23.24
2017-01-17T00:59:45.435Z,23.23
2017-01-17T01:01:14.789Z,23.27
2017-01-17T01:02:14.726Z,23.21
2017-01-17T01:03:15.862Z,23.2
2017-01-17T01:04:14.596Z,23.23
2017-01-17T01:05:14.538Z,23.23
2017-01-17T01:06:14.475Z,23.2
2017-01-17T01:07:14.412Z,23.18
2017-01-17T01:08:14.346Z,23.17
2017-01-17T01:09:14.285Z,23.24
2017-01-17T01:10:14.227Z,23.2
2017-01-17T01:11:14.160Z,23.23
2017-01-17T01:12:14.098Z,23.24
2017-01-17T01:13:14.034Z,23.2
2017-01-17T01:14:13.977Z,23.2
2017-01-17T01:15:13.911Z,23.25
2017-01-17T01:16:13.848Z,23.23
2017-01-17T01:17:13.791Z,23.2
2017-01-17T01:18:13.731Z,23.21
2017-01-17T01:19:13.662Z,23.23
2017-01-17T01:20:13.601Z,23.17
2017-01-17T01:21:13.540Z,23.23
2017-01-17T01:22:13.477Z,23.25
2017-01-17T01:23:13.417Z,23.21
2017-01-17T01:24:13.350Z,23.18
2017-01-17T01:25:13.288Z,23.24
2017-01-17T01:26:13.226Z,23.24
2017-01-17T01:27:13.165Z,23.25
2017-01-17T01:28:13.105Z,23.2
2017-01-17T01:29:13.042Z,23.24
2017-01-17T01:30:12.979Z,23.23
2017-01-17T01:31:12.919Z,23.18
2017-01-17T01:32:12.855Z,23.24
2017-01-17T01:33:12.796Z,23.24
2017-01-17T01:34:12.731Z,23.23
2017-01-17T01:35:12.672Z,23.2
2017-01-17T01:36:12.607Z,23.25
2017-01-17T01:37:12.543Z,23.23
2017-01-17T01:38:12.482Z,23.23
2017-01-17T01:39:12.419Z,23.15
2017-01-17T01:40:12.357Z,23.18
2017-01-17T01:41:12.306Z,23.28
2017-01-17T01:42:12.240Z,23.18
2017-01-17T01:43:12.171Z,23.2
2017-01-17T01:44:12.105Z,23.24
2017-01-17T01:45:12.051Z,23.24
2017-01-17T01:46:11.983Z,23.2
2017-01-17T01:47:12.309Z,23.18
2017-01-17T01:48:11.858Z,23.2
2017-01-17T01:49:11.798Z,23.21
2017-01-17T01:50:11.737Z,23.23
2017-01-17T01:51:11.674Z,23.21
2017-01-17T01:52:11.610Z,23.23
2017-01-17T01:53:11.551Z,23.25
2017-01-17T01:54:11.488Z,23.23
2017-01-17T01:55:11.427Z,23.21
2017-01-17T01:56:11.364Z,23.23
2017-01-17T01:57:11.302Z,23.18
2017-01-17T01:58:11.236Z,23.2
2017-01-17T01:59:11.179Z,23.25
2017-01-17T02:00:11.117Z,23.27
2017-01-17T02:01:11.054Z,23.18
2017-01-17T02:02:10.992Z,23.25
2017-01-17T02:03:10.929Z,23.24
2017-01-17T02:04:10.866Z,23.18
2017-01-17T02:05:10.802Z,23.23
2017-01-17T02:06:10.741Z,23.2
2017-01-17T02:07:10.679Z,23.28
2017-01-17T02:08:10.619Z,23.23
2017-01-17T02:09:10.557Z,23.15
2017-01-17T02:10:10.493Z,23.24
2017-01-17T02:11:10.431Z,23.23
2017-01-17T02:12:10.368Z,23.18
2017-01-17T02:13:10.309Z,23.2
2017-01-17T02:14:10.248Z,23.2
2017-01-17T02:15:10.182Z,23.17
2017-01-17T02:16:10.121Z,23.17
2017-01-17T02:17:10.057Z,23.2
2017-01-17T02:18:10.008Z,23.23
2017-01-17T02:19:09.936Z,23.23
2017-01-17T02:20:09.871Z,23.18
2017-01-17T02:21:09.818Z,23.21
2017-01-17T02:22:09.745Z,23.24
2017-01-17T02:23:09.685Z,23.21
2017-01-17T02:24:09.625Z,23.13
2017-01-17T02:25:09.557Z,23.24
2017-01-17T02:26:09.500Z,23.2
2017-01-17T02:27:09.439Z,23.23
2017-01-17T02:28:09.375Z,23.17
2017-01-17T02:29:09.310Z,23.17
2017-01-17T02:30:09.250Z,23.2
2017-01-17T02:31:09.189Z,23.15
2017-01-17T02:32:09.131Z,23.23
2017-01-17T02:33:09.064Z,23.25
2017-01-17T02:34:09.000Z,23.23
2017-01-17T02:35:08.944Z,23.24
2017-01-17T02:36:08.876Z,23.21
2017-01-17T02:37:08.817Z,23.21
2017-01-17T02:38:08.754Z,23.31
2017-01-17T02:39:08.691Z,23.17
2017-01-17T02:40:08.642Z,23.23
2017-01-17T02:41:08.578Z,23.17
2017-01-17T02:42:08.506Z,23.2
2017-01-17T02:43:08.468Z,23.18
2017-01-17T02:44:08.383Z,23.2
2017-01-17T02:45:08.320Z,23.24
2017-01-17T02:46:08.254Z,23.18
2017-01-17T02:47:08.399Z,23.18
2017-01-17T02:48:08.133Z,23.18
2017-01-17T02:49:08.071Z,23.18
2017-01-17T02:50:08.039Z,23.23
2017-01-17T02:51:07.945Z,23.21
2017-01-17T02:52:07.889Z,23.18
2017-01-17T02:53:07.823Z,23.2
2017-01-17T02:54:07.763Z,23.21
2017-01-17T02:55:07.705Z,23.23
2017-01-17T02:56:07.644Z,23.2
2017-01-17T02:57:07.576Z,23.15
2017-01-17T02:58:07.529Z,23.23
2017-01-17T02:59:07.450Z,23.23
2017-01-17T03:00:07.389Z,23.17
2017-01-17T03:01:07.332Z,23.23
2017-01-17T03:02:07.264Z,23.21
2017-01-17T03:03:07.202Z,23.17
2017-01-17T03:04:07.144Z,23.18
2017-01-17T03:05:07.078Z,23.24
2017-01-17T03:06:07.013Z,23.23
2017-01-17T03:07:06.958Z,23.21
2017-01-17T03:08:06.892Z,23.2
2017-01-17T03:09:06.832Z,23.21
2017-01-17T03:10:06.765Z,23.23
2017-01-17T03:11:06.705Z,23.2
2017-01-17T03:12:06.642Z,23.21
2017-01-17T03:13:06.583Z,23.23
2017-01-17T03:14:06.524Z,23.24
2017-01-17T03:15:06.456Z,23.28
2017-01-17T03:16:06.399Z,23.23
2017-01-17T03:17:06.331Z,23.21
2017-01-17T03:18:06.271Z,23.23
2017-01-17T03:19:06.206Z,23.2
2017-01-17T03:20:06.398Z,23.2
2017-01-17T03:21:06.087Z,23.18
2017-01-17T03:22:06.024Z,23.31
2017-01-17T03:23:05.963Z,23.24
2017-01-17T03:24:06.289Z,23.23
2017-01-17T03:25:05.840Z,23.23
2017-01-17T03:26:05.800Z,23.25
2017-01-17T03:27:05.714Z,23.2
2017-01-17T03:28:05.653Z,23.21
2017-01-17T03:29:05.592Z,23.21
2017-01-17T03:30:05.528Z,23.25
2017-01-17T03:31:05.860Z,23.23
2017-01-17T03:32:05.404Z,23.23
2017-01-17T03:33:05.344Z,23.17
2017-01-17T03:34:05.276Z,23.18
2017-01-17T03:35:05.218Z,23.17
2017-01-17T03:36:05.158Z,23.21
2017-01-17T03:37:05.483Z,23.2
2017-01-17T03:38:05.028Z,23.18
2017-01-17T03:39:04.965Z,23.21
2017-01-17T03:40:04.903Z,23.2
2017-01-17T03:41:05.238Z,23.2
2017-01-17T03:42:04.780Z,23.21
2017-01-17T03:43:04.718Z,23.18
2017-01-17T03:44:04.655Z,23.23
2017-01-17T03:45:04.597Z,23.18
2017-01-17T03:46:04.530Z,23.21
2017-01-17T03:47:04.471Z,23.18
2017-01-17T03:48:04.408Z,23.24
2017-01-17T03:49:04.343Z,23.2
2017-01-17T03:50:04.289Z,23.24
2017-01-17T03:51:04.220Z,23.18
2017-01-17T03:52:04.162Z,23.18
2017-01-17T03:53:04.097Z,23.23
2017-01-17T03:54:04.035Z,23.28
2017-01-17T03:55:03.973Z,23.17
2017-01-17T03:56:03.914Z,23.18
2017-01-17T03:57:03.849Z,23.21
2017-01-17T03:58:03.787Z,23.23
2017-01-17T03:59:03.727Z,23.21
2017-01-17T04:00:03.662Z,23.2
2017-01-17T04:01:03.602Z,23.21
2017-01-17T04:02:03.541Z,23.23
2017-01-17T04:03:03.476Z,23.13
2017-01-17T04:04:03.416Z,23.2
2017-01-17T04:05:03.349Z,23.15
2017-01-17T04:06:03.292Z,23.17
2017-01-17T04:07:03.228Z,23.17
2017-01-17T04:08:03.166Z,23.2
2017-01-17T04:09:03.102Z,23.15
2017-01-17T04:10:03.043Z,23.23
2017-01-17T04:11:02.980Z,23.17
2017-01-17T04:12:02.919Z,23.13
2017-01-17T04:13:02.856Z,23.18
2017-01-17T04:14:02.794Z,23.13
2017-01-17T04:15:03.124Z,23.15
2017-01-17T04:16:02.672Z,23.12
2017-01-17T04:17:02.608Z,23.17
2017-01-17T04:18:02.548Z,23.18
2017-01-17T04:19:02.480Z,23.13
2017-01-17T04:20:02.418Z,23.18
2017-01-17T04:21:02.359Z,23.13
2017-01-17T04:22:02.296Z,23.17
2017-01-17T04:23:02.234Z,23.15
2017-01-17T04:24:02.168Z,23.15
2017-01-17T04:25:02.112Z,23.12
2017-01-17T04:26:02.044Z,23.18
2017-01-17T04:27:01.984Z,23.15
2017-01-17T04:28:01.923Z,23.13
2017-01-17T04:29:01.860Z,23.15
2017-01-17T04:30:01.798Z,23.18
2017-01-17T04:31:01.739Z,23.18
2017-01-17T04:32:01.673Z,23.13
2017-01-17T04:33:01.612Z,23.13
2017-01-17T04:34:01.549Z,23.15
2017-01-17T04:35:01.494Z,23.21
2017-01-17T04:36:01.423Z,23.08
2017-01-17T04:37:01.361Z,23.1
2017-01-17T04:38:01.304Z,23.2
2017-01-17T04:39:01.244Z,23.13
2017-01-17T04:40:01.220Z,23.15
2017-01-17T04:41:01.114Z,23.17
2017-01-17T04:42:01.049Z,23.13
2017-01-17T04:43:01.006Z,23.1
2017-01-17T04:44:00.926Z,23.1
2017-01-17T04:45:00.862Z,23.12
2017-01-17T04:46:00.808Z,23.08
2017-01-17T04:47:00.740Z,23.12
2017-01-17T04:48:00.675Z,23.2
2017-01-17T04:49:00.613Z,23.1
2017-01-17T04:50:00.552Z,23.12
2017-01-17T04:51:00.491Z,23.18
2017-01-17T04:52:00.428Z,23.08
2017-01-17T04:53:00.365Z,23.09
2017-01-17T04:54:00.303Z,23.1
2017-01-17T04:55:00.241Z,23.09
2017-01-17T04:56:00.181Z,23.09
2017-01-17T04:57:00.118Z,23.06
2017-01-17T04:58:00.053Z,23.06
2017-01-17T04:58:59.998Z,23.08
2017-01-17T04:59:59.935Z,23.15
2017-01-17T05:00:59.870Z,23.12
2017-01-17T05:01:59.804Z,23.06
2017-01-17T05:02:59.740Z,23.2
2017-01-17T05:03:59.698Z,23.12
2017-01-17T05:04:59.619Z,23.1
2017-01-17T05:05:59.557Z,23.08
2017-01-17T05:06:59.492Z,23.09
2017-01-17T05:07:59.439Z,23.09
2017-01-17T05:08:59.371Z,23.12
2017-01-17T05:09:59.305Z,23.08
2017-01-17T05:10:59.241Z,23.1
2017-01-17T05:11:59.181Z,23.1
2017-01-17T05:12:59.127Z,23.1
2017-01-17T05:13:59.057Z,23.05
2017-01-17T05:14:58.996Z,23.05
2017-01-17T05:15:58.931Z,23.03
2017-01-17T05:16:58.872Z,23.06
2017-01-17T05:17:58.808Z,23.03
2017-01-17T05:18:58.744Z,23.08
2017-01-17T05:19:58.681Z,23.05
2017-01-17T05:20:58.620Z,23.05
2017-01-17T05:21:58.579Z,23.05
2017-01-17T05:22:58.496Z,23.05
2017-01-17T05:23:58.435Z,23
2017-01-17T05:24:58.373Z,23.05
2017-01-17T05:25:58.310Z,23.02
2017-01-17T05:26:58.248Z,23.08
2017-01-17T05:27:58.194Z,23.05
2017-01-17T05:28:58.514Z,23.02
2017-01-17T05:29:58.065Z,23.06
2017-01-17T05:30:57.995Z,23.02
2017-01-17T05:31:57.933Z,23.03
2017-01-17T05:32:57.873Z,23.03
2017-01-17T05:33:57.818Z,23.03
2017-01-17T05:34:57.744Z,23.05
2017-01-17T05:35:57.685Z,23.03
2017-01-17T05:36:57.627Z,23.02
2017-01-17T05:37:57.564Z,23.02
2017-01-17T05:38:57.494Z,23
2017-01-17T05:39:57.435Z,23.02
2017-01-17T05:40:57.371Z,22.99
2017-01-17T05:41:57.311Z,23
2017-01-17T05:42:57.251Z,22.99
2017-01-17T05:43:57.188Z,22.98
2017-01-17T05:44:57.124Z,23.02
2017-01-17T05:45:57.059Z,23.03
2017-01-17T05:46:57.008Z,22.99
2017-01-17T05:47:56.939Z,23
2017-01-17T05:48:56.875Z,22.98
2017-01-17T05:49:56.810Z,23.03
2017-01-17T05:50:56.750Z,22.93
2017-01-17T05:51:56.686Z,22.96
2017-01-17T05:52:56.622Z,23
2017-01-17T05:53:56.564Z,22.98
2017-01-17T05:54:56.497Z,22.98
2017-01-17T05:55:56.437Z,23.03
2017-01-17T05:56:56.374Z,22.98
2017-01-17T05:57:56.311Z,22.94
2017-01-17T05:58:56.249Z,22.96
2017-01-17T05:59:56.184Z,22.91
2017-01-17T06:00:56.132Z,22.9
2017-01-17T06:01:56.063Z,22.9
2017-01-17T06:02:55.998Z,22.91
2017-01-17T06:03:55.936Z,22.99
2017-01-17T06:04:55.873Z,23.03
2017-01-17T06:05:55.817Z,23.02
2017-01-17T06:06:55.746Z,22.99
2017-01-17T06:07:55.684Z,23.05
2017-01-17T06:08:55.655Z,23
2017-01-17T06:09:55.564Z,22.98
2017-01-17T06:10:55.500Z,22.93
2017-01-17T06:11:55.829Z,23
2017-01-17T06:12:55.378Z,23.03
2017-01-17T06:13:55.315Z,23.03
2017-01-17T06:14:55.252Z,23.03
2017-01-17T06:15:55.188Z,23.02
2017-01-17T06:16:55.126Z,23.06
2017-01-17T06:17:55.064Z,23.08
2017-01-17T06:18:54.999Z,23.08
2017-01-17T06:19:54.941Z,23.06
2017-01-17T06:20:54.877Z,23.05
2017-01-17T06:21:54.818Z,23.06
2017-01-17T06:22:54.756Z,23.12
2017-01-17T06:23:54.689Z,23.06
2017-01-17T06:24:54.627Z,23.08
2017-01-17T06:25:54.565Z,23.18
2017-01-17T06:26:54.505Z,23.18
2017-01-17T06:27:54.444Z,23.17
2017-01-17T06:28:54.378Z,23.12
2017-01-17T06:29:54.349Z,23.12
2017-01-17T06:30:54.258Z,23.17
2017-01-17T06:31:54.192Z,23.18
2017-01-17T06:32:54.134Z,23.18
2017-01-17T06:33:54.072Z,23.15
2017-01-17T06:34:54.010Z,23.13
2017-01-17T06:35:53.949Z,23.2
2017-01-17T06:36:53.887Z,23.12
2017-01-17T06:37:53.830Z,23.2
2017-01-17T06:38:53.760Z,23.21
2017-01-17T06:39:53.700Z,23.18
2017-01-17T06:40:53.637Z,23.18
2017-01-17T06:41:53.579Z,23.13
2017-01-17T06:42:53.517Z,23.13
2017-01-17T06:43:53.451Z,23.2
2017-01-17T06:44:53.388Z,23.2
2017-01-17T06:45:53.327Z,23.23
2017-01-17T06:46:53.305Z,23.15
2017-01-17T06:47:53.220Z,23.23
2017-01-17T06:48:53.145Z,23.2
2017-01-17T06:49:53.081Z,23.21
2017-01-17T06:50:53.019Z,23.17
2017-01-17T06:51:52.959Z,23.25
2017-01-17T06:52:52.892Z,23.18
2017-01-17T06:53:52.829Z,23.21
2017-01-17T06:54:52.770Z,23.23
2017-01-17T06:55:52.708Z,23.2
2017-01-17T06:56:52.643Z,23.18
2017-01-17T06:57:52.582Z,23.23
2017-01-17T06:58:52.521Z,23.17
2017-01-17T06:59:52.461Z,23.24
2017-01-17T07:00:52.400Z,23.17
2017-01-17T07:01:52.336Z,23.25
2017-01-17T07:02:52.275Z,23.18
2017-01-17T07:03:52.211Z,23.2
2017-01-17T07:04:52.149Z,23.23
2017-01-17T07:05:52.087Z,23.23
2017-01-17T07:06:52.028Z,23.25
2017-01-17T07:07:51.963Z,23.21
2017-01-17T07:08:51.900Z,23.24
2017-01-17T07:09:51.839Z,23.15
2017-01-17T07:10:51.778Z,23.24
2017-01-17T07:11:51.715Z,23.2
2017-01-17T07:12:51.650Z,23.23
2017-01-17T07:13:51.594Z,23.23
2017-01-17T07:14:51.527Z,23.21
2017-01-17T07:15:51.771Z,23.21
2017-01-17T07:16:51.430Z,23.18
2017-01-17T07:17:51.348Z,23.28
2017-01-17T07:18:51.280Z,23.28
2017-01-17T07:19:51.222Z,23.24
2017-01-17T07:20:51.551Z,23.23
2017-01-17T07:21:51.094Z,23.15
2017-01-17T07:22:51.038Z,23.24
2017-01-17T07:23:50.972Z,23.21
2017-01-17T07:24:50.908Z,23.23
2017-01-17T07:25:50.872Z,23.23
2017-01-17T07:26:50.783Z,23.27
2017-01-17T07:27:50.723Z,23.2
2017-01-17T07:28:50.658Z,23.23
2017-01-17T07:29:50.599Z,23.25
2017-01-17T07:30:50.539Z,23.25
2017-01-17T07:31:50.483Z,23.2
2017-01-17T07:32:50.413Z,23.2
2017-01-17T07:33:50.348Z,23.17
2017-01-17T07:34:50.289Z,23.21
2017-01-17T07:35:50.226Z,23.28
2017-01-17T07:36:50.166Z,23.23
2017-01-17T07:37:50.101Z,23.21
2017-01-17T07:38:50.040Z,23.24
2017-01-17T07:39:49.977Z,23.18
2017-01-17T07:40:49.916Z,23.21
2017-01-17T07:41:49.855Z,23.2
2017-01-17T07:42:49.791Z,23.23
2017-01-17T07:43:49.736Z,23.2
2017-01-17T07:44:49.666Z,23.32
2017-01-17T07:45:49.603Z,23.2
2017-01-17T07:46:49.542Z,23.18
2017-01-17T07:47:49.480Z,23.23
2017-01-17T07:48:49.419Z,23.21
2017-01-17T07:49:49.359Z,23.17
2017-01-17T07:50:49.293Z,23.21
2017-01-17T07:51:49.237Z,23.23
2017-01-17T07:52:49.168Z,23.23
2017-01-17T07:53:49.106Z,23.18
2017-01-17T07:54:49.045Z,23.21
2017-01-17T07:55:48.980Z,23.21
2017-01-17T07:56:48.920Z,23.18
2017-01-17T07:57:48.859Z,23.23
2017-01-17T07:58:48.797Z,23.18
2017-01-17T07:59:48.734Z,23.18
2017-01-17T08:00:48.677Z,23.24
2017-01-17T08:01:48.612Z,23.13
2017-01-17T08:02:48.555Z,23.21
2017-01-17T08:03:48.484Z,23.12
2017-01-17T08:04:48.421Z,23.24
2017-01-17T08:05:48.359Z,23.15
2017-01-17T08:06:48.299Z,23.18
2017-01-17T08:07:48.236Z,23.21
2017-01-17T08:08:48.175Z,23.2
2017-01-17T08:09:48.114Z,23.13
2017-01-17T08:10:48.050Z,23.18
2017-01-17T08:11:47.986Z,23.13
2017-01-17T08:12:48.395Z,23.17
2017-01-17T08:13:47.959Z,23.13
2017-01-17T08:14:48.069Z,23.13
2017-01-17T08:15:47.740Z,23.21
2017-01-17T08:16:47.678Z,23.15
2017-01-17T08:17:47.799Z,23.15
2017-01-17T08:18:47.836Z,23.15
2017-01-17T08:19:47.884Z,23.13
2017-01-17T08:20:47.728Z,23.1
2017-01-17T08:21:47.365Z,23.17
2017-01-17T08:22:47.312Z,23.09
2017-01-17T08:23:47.237Z,23.13
2017-01-17T08:24:47.180Z,23.13
2017-01-17T08:25:47.114Z,23.13
2017-01-17T08:26:47.052Z,23.1
2017-01-17T08:27:46.990Z,23.09
2017-01-17T08:28:46.928Z,23.13
2017-01-17T08:29:46.867Z,23.13
2017-01-17T08:30:47.105Z,23.1
2017-01-17T08:31:46.751Z,23.1
2017-01-17T08:32:46.680Z,23.1
2017-01-17T08:33:46.617Z,23.09
2017-01-17T08:34:46.555Z,23.15
2017-01-17T08:35:46.747Z,23.17
2017-01-17T08:36:46.429Z,23.09
2017-01-17T08:37:46.368Z,23.15
2017-01-17T08:38:46.310Z,23.08
2017-01-17T08:39:46.632Z,23.17
2017-01-17T08:40:46.181Z,23.06
2017-01-17T08:41:46.118Z,23.15
2017-01-17T08:42:46.055Z,23.1
2017-01-17T08:43:45.995Z,23.09
2017-01-17T08:44:45.928Z,23.1
2017-01-17T08:45:45.867Z,23.1
2017-01-17T08:46:45.813Z,23.08
2017-01-17T08:47:45.743Z,23.1
2017-01-17T08:48:45.682Z,23.06
2017-01-17T08:49:45.678Z,23.09
2017-01-17T08:50:45.561Z,23.09
2017-01-17T08:51:45.495Z,23.03
2017-01-17T08:52:45.430Z,23.03
2017-01-17T08:53:45.368Z,23.05
2017-01-17T08:54:45.316Z,23.1
2017-01-17T08:55:45.242Z,23.03
2017-01-17T08:56:45.190Z,23.05
2017-01-17T08:57:45.117Z,23.09
2017-01-17T08:58:45.056Z,23.1
2017-01-17T08:59:44.992Z,23.08
2017-01-17T09:00:44.931Z,23.05
2017-01-17T09:01:44.872Z,23.12
2017-01-17T09:02:45.199Z,23.09
2017-01-17T09:03:44.748Z,23.09
2017-01-17T09:04:44.682Z,23.03
2017-01-17T09:05:44.620Z,23.09
2017-01-17T09:06:44.587Z,23.08
2017-01-17T09:07:44.498Z,23.06
2017-01-17T09:08:44.433Z,23.08
2017-01-17T09:09:44.380Z,23.08
2017-01-17T09:10:44.362Z,23.12
2017-01-17T09:11:44.250Z,23.08
2017-01-17T09:12:44.186Z,23.17
2017-01-17T09:13:44.120Z,23.12
2017-01-17T09:14:44.060Z,23.13
2017-01-17T09:15:44.148Z,23.12
2017-01-17T09:16:43.939Z,23.1
2017-01-17T09:17:43.876Z,23.09
2017-01-17T09:18:44.202Z,23.12
2017-01-17T09:19:43.752Z,23.09
2017-01-17T09:20:43.713Z,23.15
2017-01-17T09:21:43.629Z,23.13
2017-01-17T09:22:43.563Z,23.2
2017-01-17T09:23:43.515Z,23.15
2017-01-17T09:24:43.468Z,23.15
2017-01-17T09:25:43.646Z,23.1
2017-01-17T09:26:43.321Z,23.13
2017-01-17T09:27:43.251Z,23.13
2017-01-17T09:28:43.191Z,23.21
2017-01-17T09:29:43.133Z,23.13
2017-01-17T09:30:43.069Z,23.18
2017-01-17T09:31:43.009Z,23.13
2017-01-17T09:32:42.946Z,23.13
2017-01-17T09:33:42.891Z,23.12
2017-01-17T09:34:42.818Z,23.13
2017-01-17T09:35:42.959Z,23.15
2017-01-17T09:36:42.695Z,23.15
2017-01-17T09:37:42.633Z,23.1
2017-01-17T09:38:42.600Z,23.2
2017-01-17T09:39:42.506Z,23.12
2017-01-17T09:40:42.837Z,23.24
2017-01-17T09:41:42.384Z,23.15
2017-01-17T09:42:42.320Z,23.17
2017-01-17T09:43:42.261Z,23.15
2017-01-17T09:44:42.197Z,23.23
2017-01-17T09:45:42.136Z,23.23
2017-01-17T09:46:42.075Z,23.25
2017-01-17T09:47:42.013Z,23.24
2017-01-17T09:48:41.951Z,23.2
2017-01-17T09:49:41.889Z,23.23
2017-01-17T09:50:41.825Z,23.23
2017-01-17T09:51:41.760Z,23.25
2017-01-17T09:52:41.712Z,23.23
2017-01-17T09:53:41.639Z,23.18
2017-01-17T09:54:41.577Z,23.18
2017-01-17T09:55:41.518Z,23.25
2017-01-17T09:56:41.458Z,23.24
2017-01-17T09:57:41.401Z,23.21
2017-01-17T09:58:41.329Z,23.25
2017-01-17T09:59:41.267Z,23.17
2017-01-17T10:00:41.204Z,23.25
2017-01-17T10:01:41.146Z,23.23
2017-01-17T10:02:41.086Z,23.18
2017-01-17T10:03:41.020Z,23.25
2017-01-17T10:04:40.955Z,23.27
2017-01-17T10:05:40.899Z,23.21
2017-01-17T10:06:40.835Z,23.21
2017-01-17T10:07:41.163Z,23.21
2017-01-17T10:08:40.712Z,23.25
2017-01-17T10:09:40.656Z,23.21
2017-01-17T10:10:40.594Z,23.24
2017-01-17T10:11:40.525Z,23.27
2017-01-17T10:12:40.506Z,23.24
2017-01-17T10:13:40.399Z,23.23
2017-01-17T10:14:40.333Z,23.18
2017-01-17T10:15:40.275Z,23.25
2017-01-17T10:16:40.214Z,23.25
2017-01-17T10:17:40.151Z,23.24
2017-01-17T10:18:40.098Z,23.2
2017-01-17T10:19:40.025Z,23.25
2017-01-17T10:20:39.967Z,23.21
2017-01-17T10:21:39.905Z,23.27
2017-01-17T10:22:39.839Z,23.25
2017-01-17T10:23:39.776Z,23.18
2017-01-17T10:24:39.714Z,23.21
2017-01-17T10:25:39.652Z,23.2
2017-01-17T10:26:39.590Z,23.23
2017-01-17T10:27:39.926Z,23.27
2017-01-17T10:28:39.466Z,23.21
2017-01-17T10:29:39.406Z,23.23
2017-01-17T10:30:39.345Z,23.25
2017-01-17T10:31:39.279Z,23.23
2017-01-17T10:32:39.218Z,23.24
2017-01-17T10:33:39.159Z,23.18
2017-01-17T10:34:39.097Z,23.27
2017-01-17T10:35:39.038Z,23.23
2017-01-17T10:36:38.972Z,23.15
2017-01-17T10:37:38.907Z,23.23
2017-01-17T10:38:38.848Z,23.2
2017-01-17T10:39:38.781Z,23.23
2017-01-17T10:40:38.725Z,23.24
2017-01-17T10:41:38.669Z,23.21
2017-01-17T10:42:38.637Z,23.23
2017-01-17T10:43:38.536Z,23.21
2017-01-17T10:44:38.476Z,23.21
2017-01-17T10:45:38.858Z,23.18
2017-01-17T10:46:38.350Z,23.18
2017-01-17T10:47:38.288Z,23.24
2017-01-17T10:48:38.222Z,23.18
2017-01-17T10:49:38.170Z,23.21
2017-01-17T10:50:38.100Z,23.21
2017-01-17T10:51:38.060Z,23.21
2017-01-17T10:52:37.976Z,23.21
2017-01-17T10:53:37.915Z,23.12
2017-01-17T10:54:38.316Z,23.2
2017-01-17T10:55:37.787Z,23.23
2017-01-17T10:56:37.725Z,23.21
2017-01-17T10:57:37.677Z,23.24
2017-01-17T10:58:37.602Z,23.24
2017-01-17T10:59:37.543Z,23.18
2017-01-17T11:00:37.478Z,23.18
2017-01-17T11:01:37.417Z,23.23
2017-01-17T11:02:37.353Z,23.17
2017-01-17T11:03:37.307Z,23.2
2017-01-17T11:04:37.231Z,23.25
2017-01-17T11:05:37.172Z,23.18
2017-01-17T11:06:37.106Z,23.15
2017-01-17T11:07:37.040Z,23.13
2017-01-17T11:08:36.985Z,23.17
2017-01-17T11:09:36.917Z,23.2
2017-01-17T11:10:36.858Z,23.18
2017-01-17T11:11:36.798Z,23.18
2017-01-17T11:12:36.733Z,23.12
2017-01-17T11:13:36.668Z,23.17
2017-01-17T11:14:36.611Z,23.2
2017-01-17T11:15:36.546Z,23.18
2017-01-17T11:16:36.787Z,23.2
2017-01-17T11:17:36.424Z,23.21
2017-01-17T11:18:36.358Z,23.13
2017-01-17T11:19:36.303Z,23.2
2017-01-17T11:20:36.236Z,23.15
2017-01-17T11:21:36.173Z,23.15
2017-01-17T11:22:36.112Z,23.2
2017-01-17T11:23:36.046Z,23.23
2017-01-17T11:24:35.985Z,23.13
2017-01-17T11:25:35.926Z,23.18
2017-01-17T11:26:35.864Z,23.13
2017-01-17T11:27:35.802Z,23.21
2017-01-17T11:28:36.134Z,23.21
2017-01-17T11:29:35.716Z,23.18
2017-01-17T11:30:35.707Z,23.12
2017-01-17T11:31:35.954Z,23.21
2017-01-17T11:32:35.764Z,23.12
2017-01-17T11:33:35.425Z,23.2
2017-01-17T11:34:35.370Z,23.13
2017-01-17T11:35:35.302Z,23.1
2017-01-17T11:36:35.241Z,23.13
2017-01-17T11:37:35.182Z,23.18
2017-01-17T11:38:35.115Z,23.13
2017-01-17T11:39:35.055Z,23.15
2017-01-17T11:40:34.990Z,23.13
2017-01-17T11:41:34.926Z,23.17
2017-01-17T11:42:34.868Z,23.13
2017-01-17T11:43:34.804Z,23.12
2017-01-17T11:44:34.743Z,23.15
2017-01-17T11:45:34.683Z,23.1
2017-01-17T11:46:34.617Z,23.1
2017-01-17T11:47:34.559Z,23.15
2017-01-17T11:48:34.492Z,23.17
2017-01-17T11:49:34.433Z,23.09
2017-01-17T11:50:34.368Z,23.05
2017-01-17T11:51:34.308Z,23.08
2017-01-17T11:52:34.257Z,23.05
2017-01-17T11:53:34.183Z,22.96
2017-01-17T11:54:34.118Z,22.8
2017-01-17T11:55:34.058Z,22.76
2017-01-17T11:56:33.994Z,22.83
2017-01-17T11:57:33.928Z,22.81
2017-01-17T11:58:33.866Z,22.76
2017-01-17T11:59:33.806Z,22.53
2017-01-17T12:00:33.743Z,22.17
2017-01-17T12:01:33.677Z,21.92
2017-01-17T12:02:34.011Z,21.77
2017-01-17T12:03:33.552Z,21.67
2017-01-17T12:04:33.490Z,21.55
2017-01-17T12:05:33.430Z,21.46
2017-01-17T12:06:33.367Z,21.46
2017-01-17T12:07:33.303Z,21.48
2017-01-17T12:08:33.234Z,21.33
2017-01-17T12:09:33.173Z,21.3
2017-01-17T12:10:33.108Z,21.35
2017-01-17T12:11:33.047Z,21.24
2017-01-17T12:12:32.984Z,21.12
2017-01-17T12:13:32.917Z,20.95
2017-01-17T12:14:33.246Z,20.99
2017-01-17T12:15:33.138Z,20.97
2017-01-17T12:16:32.721Z,20.97
2017-01-17T12:17:32.664Z,21.03
2017-01-17T12:18:32.597Z,21.29
2017-01-17T12:19:32.530Z,21.02
2017-01-17T12:20:32.470Z,20.99
2017-01-17T12:21:32.404Z,20.92
2017-01-17T12:22:32.338Z,20.97
2017-01-17T12:23:32.278Z,21.14
2017-01-17T12:24:32.208Z,21.27
2017-01-17T12:25:32.149Z,21.3
2017-01-17T12:26:32.167Z,21.4
2017-01-17T12:27:32.014Z,21.48
2017-01-17T12:28:31.954Z,21.51
2017-01-17T12:29:31.886Z,21.57
2017-01-17T12:30:31.820Z,21.55
2017-01-17T12:31:31.763Z,21.62
2017-01-17T12:32:31.689Z,21.6
2017-01-17T12:33:31.626Z,21.69
2017-01-17T12:34:31.563Z,21.67
2017-01-17T12:35:31.893Z,21.67
2017-01-17T12:36:31.714Z,21.69
2017-01-17T12:37:31.372Z,21.62
2017-01-17T12:38:31.305Z,21.69
2017-01-17T12:39:31.278Z,21.7
2017-01-17T12:40:32.121Z,21.7
2017-01-17T12:41:31.118Z,21.6
2017-01-17T12:45:32.823Z,21.76
2017-01-17T12:46:26.474Z,21.76
2017-01-17T12:47:26.408Z,21.62
2017-01-17T12:50:46.366Z,21.75
2017-01-17T12:50:55.015Z,21.73
2017-01-17T12:51:54.951Z,21.7
2017-01-17T12:52:55.278Z,21.64
2017-01-17T12:53:55.217Z,21.67
2017-01-17T12:54:55.110Z,21.51
2017-01-17T12:55:54.693Z,21.35
2017-01-17T12:56:55.107Z,21.43
2017-01-17T12:57:54.565Z,21.45
2017-01-17T12:58:54.502Z,21.29
2017-01-17T12:59:54.441Z,21.35
2017-01-17T13:00:54.369Z,21.4